createdAt,value
2024-05-09T00:02:08.574Z,98696.00
2024-05-09T00:05:14.900Z,98692.84
2024-05-09T00:08:24.483Z,98694.38
2024-05-09T00:11:30.496Z,98694.84
2024-05-09T00:14:37.364Z,98689.66
2024-05-09T00:17:43.380Z,98687.97
2024-05-09T00:20:50.178Z,98697.56
2024-05-09T00:23:58.656Z,98691.75
2024-05-09T00:27:05.533Z,98690.94
2024-05-09T00:30:17.809Z,98685.91
2024-05-09T00:33:31.397Z,98688.41
2024-05-09T00:36:37.259Z,98684.75
2024-05-09T00:39:47.436Z,98689.25
2024-05-09T00:42:53.165Z,98682.59
2024-05-09T00:46:02.186Z,98679.56
2024-05-09T00:49:09.119Z,98671.25
2024-05-09T00:52:16.086Z,98669.81
2024-05-09T00:55:24.978Z,98669.56
2024-05-09T00:58:33.437Z,98666.69
2024-05-09T01:01:39.977Z,98669.66
2024-05-09T01:04:47.050Z,98672.97
2024-05-09T01:07:53.130Z,98667.47
2024-05-09T01:11:02.655Z,98673.41
2024-05-09T01:14:08.904Z,98670.41
2024-05-09T01:17:16.803Z,98682.84
2024-05-09T01:20:31.854Z,98673.56
2024-05-09T01:23:49.386Z,98669.09
2024-05-09T01:26:55.189Z,98675.41
2024-05-09T01:30:02.279Z,98673.13
2024-05-09T01:33:11.753Z,98672.44
2024-05-09T01:36:19.354Z,98684.22
2024-05-09T01:39:27.947Z,98685.66
2024-05-09T01:42:34.615Z,98681.81
2024-05-09T01:45:41.208Z,98682.63
2024-05-09T01:48:49.049Z,98689.88
2024-05-09T01:51:55.115Z,98686.28
2024-05-09T01:55:06.371Z,98675.16
2024-05-09T01:58:12.975Z,98677.56
2024-05-09T02:01:19.767Z,98680.84
2024-05-09T02:04:25.867Z,98688.13
2024-05-09T02:07:32.730Z,98693.41
2024-05-09T02:10:41.470Z,98682.28
2024-05-09T02:13:48.267Z,98688.19
2024-05-09T02:16:54.162Z,98684.69
2024-05-09T02:20:00.956Z,98681.66
2024-05-09T02:23:07.789Z,98680.31
2024-05-09T02:26:17.291Z,98680.16
2024-05-09T02:29:23.276Z,98681.13
2024-05-09T02:32:30.404Z,98681.59
2024-05-09T02:35:36.566Z,98689.16
2024-05-09T02:38:40.889Z,98686.81
2024-05-09T02:41:49.448Z,98681.28
2024-05-09T02:44:53.802Z,98691.13
2024-05-09T02:47:59.692Z,98702.97
2024-05-09T02:53:39.643Z,98699.41
2024-05-09T02:56:43.814Z,98694.94
2024-05-09T02:59:50.891Z,98694.13
2024-05-09T03:02:57.822Z,98682.38
2024-05-09T03:06:02.542Z,98687.06
2024-05-09T03:09:12.388Z,98686.28
2024-05-09T03:12:18.185Z,98690.81
2024-05-09T03:15:22.810Z,98691.66
2024-05-09T03:18:28.845Z,98695.19
2024-05-09T03:21:33.080Z,98695.91
2024-05-09T03:24:41.760Z,98694.78
2024-05-09T03:27:48.472Z,98694.78
2024-05-09T03:30:54.301Z,98693.53
2024-05-09T03:34:01.109Z,98697.53
2024-05-09T03:37:07.553Z,98691.66
2024-05-09T03:40:23.467Z,98678.16
2024-05-09T03:43:31.904Z,98696.50
2024-05-09T03:46:38.491Z,98698.31
2024-05-09T03:49:44.348Z,98698.63
2024-05-09T03:52:48.823Z,98694.16
2024-05-09T03:55:57.307Z,98686.75
2024-05-09T03:59:04.456Z,98692.44
2024-05-09T04:02:07.746Z,98698.84
2024-05-09T04:05:15.212Z,98705.53
2024-05-09T04:08:18.407Z,98706.06
2024-05-09T04:11:27.862Z,98711.00
2024-05-09T04:14:31.206Z,98706.47
2024-05-09T04:17:41.029Z,98709.31
2024-05-09T04:20:45.545Z,98715.88
2024-05-09T04:23:52.286Z,98718.09
2024-05-09T04:26:58.158Z,98721.78
2024-05-09T04:30:07.790Z,98726.28
2024-05-09T04:33:15.462Z,98728.47
2024-05-09T04:36:22.431Z,98732.66
2024-05-09T04:39:25.737Z,98739.66
2024-05-09T04:42:35.058Z,98742.78
2024-05-09T04:45:38.340Z,98749.88
2024-05-09T04:48:46.144Z,98742.47
2024-05-09T04:51:52.060Z,98751.28
2024-05-09T04:54:58.523Z,98750.41
2024-05-09T04:58:09.871Z,98746.53
2024-05-09T05:01:16.448Z,98743.81
2024-05-09T05:04:22.199Z,98741.25
2024-05-09T05:07:26.273Z,98745.63
2024-05-09T05:10:36.127Z,98748.13
2024-05-09T05:13:44.003Z,98750.22
2024-05-09T05:16:49.888Z,98748.94
2024-05-09T05:19:54.434Z,98751.81
2024-05-09T05:23:00.685Z,98751.09
2024-05-09T05:26:06.045Z,98753.72
2024-05-09T05:29:15.514Z,98761.84
2024-05-09T05:32:20.608Z,98759.66
2024-05-09T05:35:26.520Z,98755.94
2024-05-09T05:38:33.441Z,98754.00
2024-05-09T05:41:39.357Z,98761.41
2024-05-09T05:44:48.671Z,98765.16
2024-05-09T05:47:55.233Z,98757.38
2024-05-09T05:51:04.332Z,98759.81
2024-05-09T05:54:10.505Z,98760.63
2024-05-09T05:57:15.490Z,98755.16
2024-05-09T06:00:29.693Z,98761.94
2024-05-09T06:03:41.426Z,98763.59
2024-05-09T06:06:47.427Z,98765.94
2024-05-09T06:09:51.498Z,98761.78
2024-05-09T06:12:57.288Z,98757.78
2024-05-09T06:16:05.202Z,98765.13
2024-05-09T06:19:11.131Z,98759.72
2024-05-09T06:22:17.942Z,98756.09
2024-05-09T06:25:21.123Z,98764.78
2024-05-09T06:28:27.845Z,98753.84
2024-05-09T06:31:33.679Z,98760.88
2024-05-09T06:34:40.535Z,98764.38
2024-05-09T06:37:43.712Z,98764.63
2024-05-09T06:40:50.550Z,98755.59
2024-05-09T06:43:53.771Z,98765.53
2024-05-09T06:47:03.126Z,98758.13
2024-05-09T06:50:13.325Z,98762.97
2024-05-09T06:53:28.052Z,98769.72
2024-05-09T06:56:31.431Z,98764.47
2024-05-09T06:59:38.205Z,98747.00
2024-05-09T07:02:44.185Z,98751.19
2024-05-09T07:05:51.102Z,98754.63
2024-05-09T07:08:54.506Z,98754.59
2024-05-09T07:12:01.476Z,98757.69
2024-05-09T07:15:05.631Z,98759.88
2024-05-09T07:18:20.404Z,98756.00
2024-05-09T07:21:24.530Z,98752.56
2024-05-09T07:24:31.250Z,98753.47
2024-05-09T07:27:36.778Z,98758.16
2024-05-09T07:30:43.685Z,98760.00
2024-05-09T07:33:52.521Z,98750.63
2024-05-09T07:36:56.737Z,98760.00
2024-05-09T07:40:05.793Z,98763.06
2024-05-09T07:43:12.015Z,98762.03
2024-05-09T07:47:14.287Z,98765.22
2024-05-09T07:51:32.217Z,98760.03
2024-05-09T07:53:37.072Z,98763.31
2024-05-09T07:56:37.197Z,98749.59
2024-05-09T07:59:40.491Z,98753.41
2024-05-09T08:02:47.416Z,98763.44
2024-05-09T08:05:56.212Z,98745.31
2024-05-09T08:09:07.764Z,98753.38
2024-05-09T08:12:14.260Z,98750.50
2024-05-09T08:15:21.004Z,98759.09
2024-05-09T08:18:24.405Z,98753.09
2024-05-09T08:21:34.549Z,98749.63
2024-05-09T08:24:37.960Z,98740.41
2024-05-09T08:27:44.961Z,98742.38
2024-05-09T08:30:48.547Z,98746.88
2024-05-09T08:33:56.769Z,98745.25
2024-05-09T08:37:10.130Z,98751.25
2024-05-09T08:40:30.673Z,98754.88
2024-05-09T08:43:42.048Z,98747.47
2024-05-09T08:46:51.322Z,98738.19
2024-05-09T08:50:02.002Z,98761.91
2024-05-09T08:53:09.142Z,98757.41
2024-05-09T08:56:17.232Z,98756.63
2024-05-09T08:59:38.008Z,98757.50
2024-05-09T09:02:47.817Z,98757.50
2024-05-09T09:06:06.430Z,98766.81
2024-05-09T09:09:15.735Z,98769.53
2024-05-09T09:12:22.543Z,98754.09
2024-05-09T09:15:25.705Z,98754.63
2024-05-09T09:18:33.351Z,98747.28
2024-05-09T09:21:37.323Z,98751.19
2024-05-09T09:24:46.806Z,98755.19
2024-05-09T09:27:50.180Z,98753.38
2024-05-09T09:30:57.094Z,98745.91
2024-05-09T09:34:08.159Z,98755.13
2024-05-09T09:37:15.154Z,98751.59
2024-05-09T09:40:31.692Z,98752.16
2024-05-09T09:43:40.966Z,98743.59
2024-05-09T09:46:49.295Z,98737.66
2024-05-09T09:49:54.486Z,98745.56
2024-05-09T09:53:03.881Z,98740.38
2024-05-09T09:56:11.779Z,98741.84
2024-05-09T09:59:18.644Z,98728.09
2024-05-09T10:02:23.150Z,98730.97
2024-05-09T10:05:29.906Z,98724.34
2024-05-09T10:08:37.000Z,98730.09
2024-05-09T10:11:51.743Z,98726.41
2024-05-09T10:14:56.297Z,98732.56
2024-05-09T10:18:09.094Z,98727.53
2024-05-09T10:21:17.083Z,98730.72
2024-05-09T10:24:22.910Z,98740.16
2024-05-09T10:27:31.051Z,98736.56
2024-05-09T10:30:37.440Z,98737.78
2024-05-09T10:33:48.590Z,98728.84
2024-05-09T10:36:56.639Z,98727.06
2024-05-09T10:40:04.095Z,98728.94
2024-05-09T10:43:23.191Z,98722.59
2024-05-09T10:46:27.388Z,98715.84
2024-05-09T10:49:34.057Z,98709.84
2024-05-09T10:52:40.767Z,98713.72
2024-05-09T10:55:43.979Z,98719.47
2024-05-09T10:58:54.932Z,98701.22
2024-05-09T11:01:59.152Z,98700.97
2024-05-09T11:05:06.237Z,98703.19
2024-05-09T11:08:11.125Z,98700.06
2024-05-09T11:11:19.439Z,98709.78
2024-05-09T11:14:25.219Z,98702.69
2024-05-09T11:17:40.480Z,98700.22
2024-05-09T11:20:43.867Z,98704.41
2024-05-09T11:23:51.087Z,98693.38
2024-05-09T11:26:54.533Z,98700.31
2024-05-09T11:30:04.498Z,98694.53
2024-05-09T11:33:11.859Z,98693.38
2024-05-09T11:36:19.489Z,98681.03
2024-05-09T11:39:25.410Z,98685.34
2024-05-09T11:42:29.437Z,98681.03
2024-05-09T11:45:37.902Z,98682.63
2024-05-09T11:48:42.338Z,98684.47
2024-05-09T11:51:48.213Z,98689.00
2024-05-09T11:54:52.302Z,98688.91
2024-05-09T11:57:58.456Z,98675.66
2024-05-09T12:01:05.684Z,98687.19
2024-05-09T12:04:12.498Z,98677.81
2024-05-09T12:07:18.943Z,98666.59
2024-05-09T12:10:33.035Z,98667.78
2024-05-09T12:13:39.488Z,98675.94
2024-05-09T12:16:48.069Z,98664.88
2024-05-09T12:19:52.929Z,98659.72
2024-05-09T12:22:58.691Z,98656.88
2024-05-09T12:26:03.283Z,98657.91
2024-05-09T12:29:09.075Z,98656.78
2024-05-09T12:32:15.893Z,98650.63
2024-05-09T12:35:21.920Z,98653.00
2024-05-09T12:38:26.034Z,98652.63
2024-05-09T12:41:31.827Z,98646.78
2024-05-09T12:44:35.910Z,98642.78
2024-05-09T12:47:44.493Z,98640.97
2024-05-09T12:50:48.997Z,98638.38
2024-05-09T12:53:54.903Z,98637.28
2024-05-09T12:57:01.688Z,98636.09
2024-05-09T13:00:07.325Z,98621.28
2024-05-09T13:03:16.855Z,98623.69
2024-05-09T13:06:22.834Z,98615.66
2024-05-09T13:09:27.008Z,98616.72
2024-05-09T13:12:32.754Z,98611.06
2024-05-09T13:15:37.357Z,98607.38
2024-05-09T13:18:46.119Z,98605.91
2024-05-09T13:21:50.243Z,98606.25
2024-05-09T13:24:56.216Z,98597.81
2024-05-09T13:28:00.892Z,98588.47
2024-05-09T13:31:07.258Z,98600.72
2024-05-09T13:34:16.842Z,98600.09
2024-05-09T13:37:20.217Z,98595.56
2024-05-09T13:40:32.935Z,98595.38
2024-05-09T13:43:41.142Z,98591.78
2024-05-09T13:46:45.550Z,98595.22
2024-05-09T13:49:54.472Z,98592.47
2024-05-09T13:53:01.250Z,98587.22
2024-05-09T13:56:05.202Z,98579.88
2024-05-09T13:59:13.343Z,98577.63
2024-05-09T14:02:19.366Z,98578.66
2024-05-09T14:05:26.331Z,98570.69
2024-05-09T14:08:32.651Z,98574.38
2024-05-09T14:11:39.687Z,98567.75
2024-05-09T14:14:42.901Z,98571.19
2024-05-09T14:17:50.192Z,98572.69
2024-05-09T14:20:56.032Z,98565.66
2024-05-09T14:24:02.873Z,98561.88
2024-05-09T14:27:06.485Z,98560.59
2024-05-09T14:30:22.094Z,98562.34
2024-05-09T14:33:32.358Z,98560.09
2024-05-09T14:36:39.268Z,98565.31
2024-05-09T14:39:45.152Z,98563.66
2024-05-09T14:42:49.372Z,98558.66
2024-05-09T14:45:56.254Z,98552.84
2024-05-09T14:49:00.703Z,98553.41
2024-05-09T14:52:09.930Z,98551.69
2024-05-09T14:55:14.364Z,98554.56
2024-05-09T14:58:20.610Z,98550.44
2024-05-09T15:01:25.230Z,98550.59
2024-05-09T15:04:31.191Z,98547.44
2024-05-09T15:07:38.431Z,98551.06
2024-05-09T15:10:44.492Z,98543.53
2024-05-09T15:13:48.715Z,98547.19
2024-05-09T15:16:54.610Z,98533.66
2024-05-09T15:20:01.619Z,98539.78
2024-05-09T15:23:07.987Z,98538.72
2024-05-09T15:26:15.130Z,98532.81
2024-05-09T15:29:18.429Z,98541.00
2024-05-09T15:32:29.747Z,98538.06
2024-05-09T15:35:34.534Z,98538.25
2024-05-09T15:38:43.900Z,98544.53
2024-05-09T15:41:47.153Z,98531.16
2024-05-09T15:44:53.995Z,98533.25
2024-05-09T15:48:00.308Z,98532.28
2024-05-09T15:51:07.775Z,98529.25
2024-05-09T15:54:16.436Z,98532.91
2024-05-09T15:57:20.794Z,98534.13
2024-05-09T16:00:36.544Z,98532.50
2024-05-09T16:03:47.220Z,98526.69
2024-05-09T16:06:50.756Z,98515.41
2024-05-09T16:10:00.467Z,98527.28
2024-05-09T16:13:04.220Z,98517.84
2024-05-09T16:16:11.912Z,98525.75
2024-05-09T16:19:15.234Z,98525.06
2024-05-09T16:22:22.050Z,98516.88
2024-05-09T16:25:27.918Z,98525.72
2024-05-09T16:28:36.951Z,98517.72
2024-05-09T16:31:40.234Z,98515.78
2024-05-09T16:34:47.013Z,98516.91
2024-05-09T16:37:50.296Z,98522.88
2024-05-09T16:40:59.712Z,98511.94
2024-05-09T16:44:04.360Z,98522.53
2024-05-09T16:47:11.592Z,98510.81
2024-05-09T16:50:25.722Z,98512.56
2024-05-09T16:53:36.033Z,98514.91
2024-05-09T16:56:42.082Z,98512.31
2024-05-09T16:59:48.875Z,98506.91
2024-05-09T17:02:54.621Z,98513.59
2024-05-09T17:06:03.444Z,98516.09
2024-05-09T17:09:11.658Z,98511.94
2024-05-09T17:12:24.623Z,98524.06
2024-05-09T17:15:30.331Z,98515.50
2024-05-09T17:18:37.327Z,98516.88
2024-05-09T17:21:43.431Z,98517.19
2024-05-09T17:24:47.622Z,98515.84
2024-05-09T17:27:56.399Z,98520.19
2024-05-09T17:31:03.405Z,98520.00
2024-05-09T17:37:14.112Z,98518.78
2024-05-09T17:40:27.139Z,98514.41
2024-05-09T17:44:45.520Z,98510.66
2024-05-09T17:47:52.769Z,98517.78
2024-05-09T17:50:58.743Z,98510.72
2024-05-09T17:54:02.922Z,98513.69
2024-05-09T17:57:09.487Z,98520.41
2024-05-09T18:00:24.648Z,98528.34
2024-05-09T18:03:40.050Z,98526.34
2024-05-09T18:06:44.436Z,98526.97
2024-05-09T18:09:50.441Z,98525.56
2024-05-09T18:12:54.630Z,98526.81
2024-05-09T18:16:03.358Z,98522.28
2024-05-09T18:19:07.843Z,98534.72
2024-05-09T18:22:13.770Z,98531.22
2024-05-09T18:25:18.214Z,98531.84
2024-05-09T18:28:24.998Z,98532.84
2024-05-09T18:31:34.452Z,98543.59
2024-05-09T18:34:40.345Z,98541.53
2024-05-09T18:37:47.431Z,98550.00
2024-05-09T18:40:50.649Z,98541.91
2024-05-09T18:43:57.383Z,98545.38
2024-05-09T18:47:04.791Z,98562.91
2024-05-09T18:50:17.388Z,98564.91
2024-05-09T18:53:30.345Z,98567.56
2024-05-09T18:56:37.291Z,98572.28
2024-05-09T18:59:43.071Z,98570.41
2024-05-09T19:02:50.010Z,98576.53
2024-05-09T19:05:56.276Z,98575.25
2024-05-09T19:09:00.379Z,98584.25
2024-05-09T19:12:06.877Z,98585.41
2024-05-09T19:15:10.959Z,98593.41
2024-05-09T19:18:20.018Z,98601.31
2024-05-09T19:21:24.179Z,98602.13
2024-05-09T19:24:29.899Z,98600.00
2024-05-09T19:27:36.590Z,98610.25
2024-05-09T19:30:42.175Z,98594.59
2024-05-09T19:33:52.421Z,98608.03
2024-05-09T19:37:00.223Z,98611.88
2024-05-09T19:40:08.357Z,98603.97
2024-05-09T19:43:16.294Z,98605.91
2024-05-09T19:46:20.650Z,98600.72
2024-05-09T19:49:29.120Z,98608.19
2024-05-09T19:52:33.331Z,98607.47
2024-05-09T19:55:39.250Z,98613.66
2024-05-09T19:58:43.311Z,98613.03
2024-05-09T20:01:49.186Z,98609.28
2024-05-09T20:04:56.003Z,98611.31
2024-05-09T20:08:01.859Z,98608.69
2024-05-09T20:11:06.267Z,98610.91
2024-05-09T20:14:11.995Z,98608.41
2024-05-09T20:17:15.962Z,98609.34
2024-05-09T20:20:33.109Z,98620.16
2024-05-09T20:23:45.146Z,98616.41
2024-05-09T20:26:48.252Z,98617.69
2024-05-09T20:29:54.947Z,98609.03
2024-05-09T20:32:58.223Z,98618.72
2024-05-09T20:36:09.299Z,98623.63
2024-05-09T20:39:15.053Z,98614.75
2024-05-09T20:42:19.204Z,98606.19
2024-05-09T20:45:24.967Z,98615.22
2024-05-09T20:48:29.151Z,98605.63
2024-05-09T20:51:37.831Z,98612.09
2024-05-09T20:54:41.984Z,98619.00
2024-05-09T20:57:47.964Z,98605.25
2024-05-09T21:00:52.446Z,98611.25
2024-05-09T21:03:58.461Z,98613.06
2024-05-09T21:07:08.121Z,98606.63
2024-05-09T21:10:15.860Z,98611.16
2024-05-09T21:13:29.029Z,98603.81
2024-05-09T21:16:34.316Z,98614.28
2024-05-09T21:19:41.109Z,98612.88
2024-05-09T21:22:49.705Z,98614.38
2024-05-09T21:25:53.772Z,98608.00
2024-05-09T21:28:59.567Z,98609.97
2024-05-09T21:32:03.945Z,98607.78
2024-05-09T21:35:10.394Z,98606.13
2024-05-09T21:38:17.090Z,98613.09
2024-05-09T21:41:22.825Z,98616.50
2024-05-09T21:44:26.875Z,98613.19
2024-05-09T21:47:33.018Z,98609.19
2024-05-09T21:50:42.191Z,98610.59
2024-05-09T21:53:51.727Z,98604.59
2024-05-09T21:56:55.892Z,98606.09
2024-05-09T22:00:01.688Z,98605.34
2024-05-09T22:03:10.870Z,98614.91
2024-05-09T22:06:17.607Z,98613.56
2024-05-09T22:09:24.378Z,98605.28
2024-05-09T22:12:30.345Z,98608.00
2024-05-09T22:15:37.307Z,98607.59
2024-05-09T22:18:44.055Z,98607.78
2024-05-09T22:21:49.287Z,98606.81
2024-05-09T22:24:57.861Z,98605.69
2024-05-09T22:28:03.736Z,98605.22
2024-05-09T22:31:11.954Z,98610.56
2024-05-09T22:34:18.883Z,98608.72
2024-05-09T22:37:22.194Z,98606.41
2024-05-09T22:40:42.152Z,98608.41
2024-05-09T22:43:50.853Z,98607.06
2024-05-09T22:46:57.708Z,98605.97
2024-05-09T22:50:00.879Z,98601.72
2024-05-09T22:53:08.477Z,98595.22
2024-05-09T22:56:15.515Z,98608.56
2024-05-09T22:59:22.278Z,98601.44
2024-05-09T23:02:25.623Z,98595.94
2024-05-09T23:05:33.824Z,98600.25
2024-05-09T23:08:37.030Z,98600.97
2024-05-09T23:11:47.796Z,98593.13
2024-05-09T23:14:53.566Z,98601.97
2024-05-09T23:17:58.427Z,98589.28
2024-05-09T23:21:04.696Z,98600.13
2024-05-09T23:24:09.234Z,98594.16
2024-05-09T23:27:17.809Z,98599.31
2024-05-09T23:30:29.535Z,98601.47
2024-05-09T23:33:49.059Z,98601.31
2024-05-09T23:36:53.315Z,98593.84
2024-05-09T23:39:59.117Z,98592.69
2024-05-09T23:43:06.336Z,98591.34
2024-05-09T23:46:14.523Z,98583.03
2024-05-09T23:49:18.818Z,98584.72
2024-05-09T23:52:24.975Z,98582.22
2024-05-09T23:55:29.260Z,98587.69
2024-05-09T23:58:37.878Z,98577.03
